Albion, New Jersey
Current Conditions -  °F | °C
As of 1:54 AM on Sunday 26 Oct 2014 (Local Time) from KVAY Reporting Station
Overcast Overcast  
Wind Chill: 59°   Ceiling: 7500
Heat Index: 59°   Visibility: 10mi
Dew Point: 44°   Wind: 7mph
Humidity: 58%   Direction: 240°WSW
Pressure: 29.6"   Gusts: NA
Location:  39.7587°N, 74.9349°W
Report Text: KVAY 260554Z AUTO 24006KT 10SM OVC075 15/07 A2960 RMK AO2 SLP022 T01500067 10161 20144 56016
Loading
Personal Weather Stations






























Interactive Weather Map
Tropical Storm Tracking
New forecast layout! Learn more

10-Day Weather Forecast

Advertisements
Track Severe Weather on mobile